Map

Track Data

SID SEASON NUMBER BASIN SUBBASIN NAME ISO_TIME NATURE LAT LON WMO_WIND WMO_PRES WMO_AGENCY TRACK_TYPE DIST2LAND LANDFALL IFLAG USA_AGENCY USA_ATCF_ID USA_LAT USA_LON USA_RECORD USA_STATUS USA_WIND USA_PRES USA_SSHS USA_R34_NE USA_R34_SE USA_R34_SW USA_R34_NW USA_R50_NE USA_R50_SE USA_R50_SW USA_R50_NW USA_R64_NE USA_R64_SE USA_R64_SW USA_R64_NW USA_POCI USA_ROCI USA_RMW USA_EYE TOKYO_LAT TOKYO_LON TOKYO_GRADE TOKYO_WIND TOKYO_PRES TOKYO_R50_DIR TOKYO_R50_LONG TOKYO_R50_SHORT TOKYO_R30_DIR TOKYO_R30_LONG TOKYO_R30_SHORT TOKYO_LAND CMA_LAT CMA_LON CMA_CAT CMA_WIND CMA_PRES HKO_LAT HKO_LON HKO_CAT HKO_WIND HKO_PRES NEWDELHI_LAT NEWDELHI_LON NEWDELHI_GRADE NEWDELHI_WIND NEWDELHI_PRES NEWDELHI_CI NEWDELHI_DP NEWDELHI_POCI REUNION_LAT REUNION_LON REUNION_TYPE REUNION_WIND REUNION_PRES REUNION_TNUM REUNION_CI REUNION_RMW REUNION_R34_NE REUNION_R34_SE REUNION_R34_SW REUNION_R34_NW REUNION_R50_NE REUNION_R50_SE REUNION_R50_SW REUNION_R50_NW REUNION_R64_NE REUNION_R64_SE REUNION_R64_SW REUNION_R64_NW BOM_LAT BOM_LON BOM_TYPE BOM_WIND BOM_PRES BOM_TNUM BOM_CI BOM_RMW BOM_R34_NE BOM_R34_SE BOM_R34_SW BOM_R34_NW BOM_R50_NE BOM_R50_SE BOM_R50_SW BOM_R50_NW BOM_R64_NE BOM_R64_SE BOM_R64_SW BOM_R64_NW BOM_ROCI BOM_POCI BOM_EYE BOM_POS_METHOD BOM_PRES_METHOD NADI_LAT NADI_LON NADI_CAT NADI_WIND NADI_PRES WELLINGTON_LAT WELLINGTON_LON WELLINGTON_WIND WELLINGTON_PRES DS824_LAT DS824_LON DS824_STAGE DS824_WIND DS824_PRES TD9636_LAT TD9636_LON TD9636_STAGE TD9636_WIND TD9636_PRES TD9635_LAT TD9635_LON TD9635_WIND TD9635_PRES TD9635_ROCI NEUMANN_LAT NEUMANN_LON NEUMANN_CLASS NEUMANN_WIND NEUMANN_PRES MLC_LAT MLC_LON MLC_CLASS MLC_WIND MLC_PRES USA_GUST BOM_GUST BOM_GUST_PER REUNION_GUST REUNION_GUST_PER USA_SEAHGT USA_SEARAD_NE USA_SEARAD_SE USA_SEARAD_SW USA_SEARAD_NW STORM_SPEED STORM_DIR
1946001S23113 1946 1 SI WA NOT_NAMED 1946-01-01 06:00:00 NR -23.2000 112.700 spur-split 112 112 _____O________ -1 -23.2000 112.700 99 9.90000 1 0
1946001S23113 1946 1 SI WA NOT_NAMED 1946-01-01 09:00:00 NR -23.1762 112.716 spur-split 112 112 _____P________ -1 -23.1762 112.716 99 1 19
1946001S23113 1946 1 SI WA NOT_NAMED 1946-01-01 11:00:00 NR -23.1627 112.723 spur-split 112 112 _____P________ -1 -23.1627 112.723 99 0 0
1946001S23113 1946 1 SI WA NOT_NAMED 1946-01-01 12:00:00 NR -23.1571 112.724 spur-split 112 107 _____P________ -1 -23.1571 112.724 99 0 0
1946001S23113 1946 1 SI WA NOT_NAMED 1946-01-01 15:00:00 NR -23.1474 112.714 spur-split 107 107 _____P________ -1 -23.1474 112.714 99 0 278
1946001S23113 1946 1 SI WA NOT_NAMED 1946-01-01 18:00:00 NR -23.1515 112.678 spur-split 112 112 _____P________ -1 -23.1515 112.678 99 1 254
1946001S23113 1946 1 SI WA NOT_NAMED 1946-01-01 21:00:00 NR -23.1743 112.608 spur-split 120 120 _____P________ -1 -23.1743 112.608 99 2 249
1946001S23113 1946 1 SI WA NOT_NAMED 1946-01-01 23:00:00 NR -23.2021 112.537 spur-split 128 128 _____P________ -1 -23.2021 112.537 99 2 246
1946001S23113 1946 1 SI WA NOT_NAMED 1946-01-02 00:00:00 NR -23.2203 112.494 spur-split 128 128 _____P________ -1 -23.2203 112.494 99 3 246
1946001S23113 1946 1 SI WA NOT_NAMED 1946-01-02 01:00:00 NR -23.2416 112.445 spur-split 136 130 _____P________ -1 -23.2416 112.445 99 3 244
1946001S23113 1946 1 SI WA NOT_NAMED 1946-01-02 03:00:00 NR -23.2940 112.327 spur-split 139 139 _____P________ -1 -23.2940 112.327 99 4 243
1946001S23113 1946 1 SI WA NOT_NAMED 1946-01-02 06:00:00 NR -23.4000 112.100 spur-split 153 153 _____O________ -1 -23.4000 112.100 99 9.90000 5 243
1946001S23113 1946 1 SI WA NOT_NAMED 1946-01-02 09:00:00 NR -23.5403 111.807 spur-split 178 176 _____P________ -1 -23.5403 111.807 99 7 242
1946001S23113 1946 1 SI WA NOT_NAMED 1946-01-02 12:00:00 NR -23.7082 111.460 spur-split 204 204 _____P________ -1 -23.7082 111.460 99 8 242
1946001S23113 1946 1 SI WA NOT_NAMED 1946-01-02 15:00:00 NR -23.8946 111.076 spur-split 239 239 _____P________ -1 -23.8946 111.076 99 8 242
1946001S23113 1946 1 SI WA NOT_NAMED 1946-01-02 18:00:00 NR -24.0906 110.672 spur-split 275 275 _____P________ -1 -24.0906 110.672 99 8 242
1946001S23113 1946 1 SI WA NOT_NAMED 1946-01-02 21:00:00 NR -24.2876 110.265 spur-split 314 314 _____P________ -1 -24.2876 110.265 99 8 242
1946001S23113 1946 1 SI WA NOT_NAMED 1946-01-03 00:00:00 NR -24.4771 109.872 spur-split 354 354 _____P________ -1 -24.4771 109.872 99 8 242
1946001S23113 1946 1 SI WA NOT_NAMED 1946-01-03 03:00:00 NR -24.6506 109.511 spur-split 395 395 _____P________ -1 -24.6506 109.511 99 7 242
1946001S23113 1946 1 SI WA NOT_NAMED 1946-01-03 06:00:00 NR -24.8000 109.200 spur-split 426 426 _____O________ -1 -24.8000 109.200 99 9.90000 6 242
1946001S23113 1946 1 SI WA NOT_NAMED 1946-01-03 09:00:00 NR -24.9193 108.952 spur-split 447 447 _____P________ -1 -24.9193 108.952 99 4 242
1946001S23113 1946 1 SI WA NOT_NAMED 1946-01-03 12:00:00 NR -25.0106 108.763 spur-split 467 467 _____P________ -1 -25.0106 108.763 99 3 242
1946001S23113 1946 1 SI WA NOT_NAMED 1946-01-03 15:00:00 NR -25.0782 108.624 spur-split 483 483 _____P________ -1 -25.0782 108.624 99 2 242
1946001S23113 1946 1 SI WA NOT_NAMED 1946-01-03 18:00:00 NR -25.1261 108.528 spur-split 493 491 _____P________ -1 -25.1261 108.528 99 2 241
1946001S23113 1946 1 SI WA NOT_NAMED 1946-01-03 21:00:00 NR -25.1582 108.466 spur-split 491 491 _____P________ -1 -25.1582 108.466 99 1 240
1946001S23113 1946 1 SI WA NOT_NAMED 1946-01-04 00:00:00 NR -25.1787 108.430 spur-split 500 500 _____P________ -1 -25.1787 108.430 99 1 241
1946001S23113 1946 1 SI WA NOT_NAMED 1946-01-04 03:00:00 NR -25.1913 108.411 spur-split 500 500 _____P________ -1 -25.1913 108.411 99 0 0
1946001S23113 1946 1 SI WA NOT_NAMED 1946-01-04 06:00:00 NR -25.2000 108.400 spur-split 500 _____O________ -1 -25.2000 108.400 99 9.90000 0 0

About IBTrACS Database

This database is a web-friendly format of International Best Track Archive for Climate Stewardship (IBTrACS), a global best track data archive curated by NOAA dating back to 1842.

Updated: 2021-12-08